Flight Track Log - Related Links

Times and Time Zones

All times are in EDT time to prevent confusion due to time zone crossing. See the N31700 flight status page for this flight to view local times or setup timezone preferences in your user account.

Time Position Orientation Groundspeed Altitude Reporting Facility
EDT Latitude Longitude Course Direction KTS MPH feet Rate Location/Type
Sun 07:11:29 PM 35.8161 -84.0147 11° North 96 110 2,600  Level Indianapolis Center
Sun 07:12:31 PM 35.8431 -84.0022 21° North 102 117 3,300 677 Climbing Indianapolis Center
Sun 07:13:33 PM 35.8708 -83.9933 15° North 102 117 4,000 726 Climbing Indianapolis Center
Sun 07:14:35 PM 35.9025 -83.9867 10° North 97 112 4,800 726 Climbing Indianapolis Center
Sun 07:15:37 PM 35.9308 -83.9861 North 99 114 5,500 683 Climbing Indianapolis Center
Sun 07:16:00 PM 36.0441 -83.9390 11° North  Level FlightAware Approximate
Sun 07:16:38 PM 35.9589 -83.9808 North 102 117 6,200  Level Indianapolis Center
Sun 07:17:40 PM 35.9869 -83.9719 14° North 103 119 6,900 629 Climbing Indianapolis Center
Sun 07:18:42 PM 36.0150 -83.9644 12° North 103 119 7,500 581 Climbing Indianapolis Center
Sun 07:19:44 PM 36.0439 -83.9564 13° North 105 121 8,100 629 Climbing Indianapolis Center
Sun 07:20:46 PM 36.0792 -83.9514 North 107 123 8,800 532 Climbing Indianapolis Center
Sun 07:21:48 PM 36.1053 -83.9450 11° North 99 114 9,200 146 Climbing Indianapolis Center
Sun 07:22:49 PM 36.1386 -83.9317 18° North 116 133 9,100 -49 Descending Indianapolis Center
Sun 07:23:51 PM 36.1756 -83.9222 12° North 129 148 9,100  Level Indianapolis Center
Sun 07:24:53 PM 36.2103 -83.9178 North 127 146 9,100 48 Level Indianapolis Center
Sun 07:25:55 PM 36.2461 -83.9097 10° North 130 150 9,200 -49 Climbing Indianapolis Center
Sun 07:26:56 PM 36.2825 -83.8992 13° North 132 152 9,000 -98 Descending Indianapolis Center
Sun 07:27:58 PM 36.3250 -83.8897 10° North 131 151 9,000  Level Indianapolis Center
Sun 07:29:00 PM 36.3592 -83.8839 North 126 145 9,000 48 Level Indianapolis Center
Sun 07:30:02 PM 36.3936 -83.8761 10° North 126 145 9,100 98 Climbing Indianapolis Center
Sun 07:31:03 PM 36.4275 -83.8708 North 124 143 9,200 49 Climbing Indianapolis Center
Sun 07:32:05 PM 36.4628 -83.8611 12° North 127 146 9,200 -97 Level Indianapolis Center
Sun 07:33:07 PM 36.4994 -83.8517 12° North 132 152 9,000 -98 Descending Indianapolis Center
Sun 07:34:08 PM 36.5369 -83.8450 North 132 152 9,000  Level Indianapolis Center
Sun 07:35:10 PM 36.5733 -83.8392 North 131 151 9,000 48 Level Indianapolis Center
Sun 07:36:12 PM 36.6139 -83.8303 10° North 128 147 9,100 49 Climbing Indianapolis Center
Sun 07:37:13 PM 36.6500 -83.8236 North 129 148 9,100  Level Indianapolis Center
Sun 07:38:15 PM 36.6847 -83.8122 15° North 129 148 9,100 -48 Level Indianapolis Center
Sun 07:39:17 PM 36.7231 -83.8042 10° North 135 155 9,000 -49 Descending Indianapolis Center
Sun 07:40:18 PM 36.7586 -83.7958 11° North 132 152 9,000  Level Indianapolis Center
Sun 07:41:20 PM 36.7942 -83.7889 North 129 148 9,000  Level Indianapolis Center
Sun 07:42:21 PM 36.8294 -83.7825 North 128 147 9,000 49 Level Indianapolis Center
Sun 07:43:23 PM 36.8700 -83.7733 10° North 127 146 9,100 48 Climbing Indianapolis Center
Sun 07:44:25 PM 36.9067 -83.7650 10° North 131 151 9,100 -49 Level Indianapolis Center
Sun 07:45:26 PM 36.9433 -83.7572 10° North 132 152 9,000 -49 Descending Indianapolis Center
Sun 07:46:28 PM 36.9789 -83.7492 10° North 131 151 9,000  Level Indianapolis Center
Sun 07:47:30 PM 37.0169 -83.7411 10° North 135 155 9,000 -49 Level Indianapolis Center
Sun 07:48:31 PM 37.0539 -83.7336 North 134 154 8,900 -49 Descending Indianapolis Center
Sun 07:49:33 PM 37.0917 -83.7275 North 135 155 8,900  Level Indianapolis Center
Sun 07:50:35 PM 37.1292 -83.7175 12° North 136 157 8,900 49 Level Indianapolis Center
Sun 07:51:36 PM 37.1717 -83.7097 North 133 153 9,000 49 Climbing Indianapolis Center
Sun 07:52:38 PM 37.2086 -83.7014 10° North 133 153 9,000 -48 Level Indianapolis Center
Sun 07:53:40 PM 37.2447 -83.6922 11° North 133 153 8,900  Descending Indianapolis Center
Sun 07:54:41 PM 37.2817 -83.6850 North 133 153 9,000 49 Climbing Indianapolis Center
Sun 07:55:43 PM 37.3181 -83.6761 11° North 132 152 9,000  Level Indianapolis Center
Sun 07:56:44 PM 37.3550 -83.6675 10° North 134 154 9,000 -49 Level Indianapolis Center
Sun 07:57:46 PM 37.3911 -83.6600 North 133 153 8,900  Descending Indianapolis Center
Sun 07:58:48 PM 37.4336 -83.6511 North 132 152 9,000 49 Climbing Indianapolis Center
Sun 07:59:49 PM 37.4703 -83.6419 11° North 133 153 9,000  Level Indianapolis Center
Sun 08:00:51 PM 37.5056 -83.6325 12° North 131 151 9,000  Level Indianapolis Center
Sun 08:01:52 PM 37.5419 -83.6256 North 131 151 9,000 49 Level Indianapolis Center
Sun 08:02:54 PM 37.5789 -83.6156 12° North 134 154 9,100 49 Climbing Indianapolis Center
Sun 08:03:55 PM 37.6147 -83.6094 North 131 151 9,100  Level Indianapolis Center
Sun 08:04:57 PM 37.6517 -83.6022 North 133 153 9,100 -48 Level Indianapolis Center
Sun 08:05:59 PM 37.6892 -83.5967 North 135 155 9,000 -49 Descending Indianapolis Center
Sun 08:07:00 PM 37.7319 -83.5839 13° North 134 154 9,000  Level Indianapolis Center
Sun 08:08:02 PM 37.7681 -83.5767 North 132 152 9,000  Level Indianapolis Center
Sun 08:09:03 PM 37.8036 -83.5706 North 130 150 9,000  Level Indianapolis Center
Sun 08:10:05 PM 37.8392 -83.5614 12° North 129 148 9,000  Level Indianapolis Center
Sun 08:11:06 PM 37.8747 -83.5533 10° North 130 150 9,000  Level Indianapolis Center
Sun 08:12:08 PM 37.9103 -83.5478 North 128 147 9,000  Level Indianapolis Center
Sun 08:13:10 PM 37.9469 -83.5403 North 132 152 9,000  Level Indianapolis Center
Sun 08:14:11 PM 37.9881 -83.5289 12° North 132 152 9,000  Level Indianapolis Center
Sun 08:15:13 PM 38.0239 -83.5244 North 130 150 9,000  Level Indianapolis Center
Sun 08:16:14 PM 38.0586 -83.5172 North 126 145 9,000  Level Indianapolis Center
Sun 08:17:16 PM 38.0936 -83.5069 13° North 128 147 9,000  Level Indianapolis Center
Sun 08:18:17 PM 38.1292 -83.5022 North 127 146 9,000 49 Level Indianapolis Center
Sun 08:19:19 PM 38.1642 -83.4900 15° North 129 148 9,100 49 Climbing Indianapolis Center
Sun 08:20:20 PM 38.2017 -83.4833 North 134 154 9,100 -49 Level Indianapolis Center
Sun 08:21:22 PM 38.2378 -83.4733 12° North 133 153 9,000 -48 Descending Indianapolis Center
Sun 08:22:24 PM 38.2781 -83.4650 North 128 147 9,000  Level Indianapolis Center
Sun 08:23:25 PM 38.3139 -83.4583 North 129 148 9,000  Level Indianapolis Center
Sun 08:24:27 PM 38.3503 -83.4483 12° North 133 153 9,000  Level Indianapolis Center
Sun 08:25:28 PM 38.3861 -83.4400 10° North 129 148 9,000  Level Indianapolis Center
Sun 08:26:30 PM 38.4217 -83.4317 10° North 129 148 9,000  Level Indianapolis Center
Sun 08:27:32 PM 38.4578 -83.4233 10° North 131 151 9,000  Level Indianapolis Center
Sun 08:28:33 PM 38.4922 -83.4169 North 126 145 9,000  Level Indianapolis Center
Sun 08:29:35 PM 38.5339 -83.4089 North 127 146 9,000  Level Indianapolis Center
Sun 08:30:36 PM 38.5708 -83.4003 10° North 134 154 9,000  Level Indianapolis Center
Sun 08:31:38 PM 38.6072 -83.3953 North 132 152 9,000  Level Indianapolis Center
Sun 08:32:40 PM 38.6428 -83.3925 North 129 148 9,000  Level Indianapolis Center
Sun 08:33:41 PM 38.6825 -83.3792 15° North 135 155 9,000  Level Indianapolis Center
Sun 08:34:43 PM 38.7208 -83.3714 North 137 158 9,000  Level Indianapolis Center
Sun 08:35:44 PM 38.7578 -83.3575 16° North 138 159 9,000  Level Indianapolis Center
Sun 08:36:46 PM 38.7961 -83.3478 11° North 139 160 9,000  Level Indianapolis Center
Sun 08:37:47 PM 38.8350 -83.3331 16° North 143 165 9,000  Level Indianapolis Center
Sun 08:38:49 PM 38.8717 -83.3258 North 137 158 9,000  Level Indianapolis Center
Sun 08:39:51 PM 38.9094 -83.3206 North 136 157 9,000  Level Indianapolis Center
Sun 08:40:52 PM 38.9464 -83.3131 North 134 154 9,000  Level Indianapolis Center
Sun 08:41:54 PM 38.9822 -83.3019 14° North 133 153 9,000  Level Indianapolis Center
Sun 08:42:55 PM 39.0189 -83.2919 12° North 133 153 9,000  Level Indianapolis Center
Sun 08:43:57 PM 39.0561 -83.2817 12° North 136 157 9,000  Level Indianapolis Center
Sun 08:44:58 PM 39.1003 -83.2717 10° North 138 159 9,000  Level Indianapolis Center
Sun 08:46:00 PM 39.1381 -83.2639 North 136 157 9,000  Level Indianapolis Center
Sun 08:47:01 PM 39.1747 -83.2531 13° North 135 155 9,000  Level Indianapolis Center
Sun 08:48:03 PM 39.2119 -83.2514 North 133 153 9,000  Level Indianapolis Center
Sun 08:49:04 PM 39.2494 -83.2408 12° North 136 157 9,000  Level Indianapolis Center
Sun 08:50:06 PM 39.2878 -83.2333 North 138 159 9,000  Level Indianapolis Center
Sun 08:50:36 PM 39.3106 -83.2308 North 137 158 9,000  Level Indianapolis Center
Sun 08:51:06 PM 39.3278 -83.2247 15° North 139 160 9,000  Level Indianapolis Center
Sun 08:52:07 PM 39.3653 -83.2239 North 138 159 9,000  Level Indianapolis Center
Sun 08:53:08 PM 39.4019 -83.2417 339° North 131 151 9,000 -99 Level Indianapolis Center
Sun 08:54:08 PM 39.4383 -83.2269 17° North 142 163 8,800 -397 Descending Indianapolis Center
Sun 08:55:09 PM 39.4814 -83.2133 14° North 152 175 8,200 -639 Descending Indianapolis Center
Sun 08:56:10 PM 39.5222 -83.1964 18° North 155 178 7,500 -694 Descending Indianapolis Center
Sun 08:57:10 PM 39.5647 -83.1878 North 153 176 6,800 -667 Descending Indianapolis Center
Sun 08:58:16 PM 39.6094 -83.1778 10° North 154 177 6,100 -563 Descending Indianapolis Center
Sun 08:59:18 PM 39.6508 -83.1675 11° North 152 175 5,600 -532 Descending Indianapolis Center
Sun 09:00:20 PM 39.6911 -83.1706 357° North 146 168 5,000 -585 Descending Indianapolis Center
Sun 09:01:21 PM 39.7319 -83.1717 359° North 145 167 4,400 -639 Descending Indianapolis Center
Sun 09:02:22 PM 39.7719 -83.1733 358° North 144 166 3,700 -590 Descending Indianapolis Center
Sun 09:03:23 PM 39.8117 -83.1742 359° North 143 165 3,200 -295 Descending Indianapolis Center
Sun 09:04:24 PM 39.8483 -83.1744 360° North 137 158 3,100 -98 Descending Indianapolis Center
Sun 09:05:26 PM 39.8831 -83.1783 355° North 129 148 3,000 -49 Descending Indianapolis Center
Sun 09:06:27 PM 39.9189 -83.1781 360° North 127 146 3,000  Level Indianapolis Center
Sun 09:07:28 PM 39.9533 -83.1683 12° North 133 153 3,000 -49 Level Indianapolis Center
Sun 09:08:29 PM 39.9850 -83.1369 37° Northeast 139 160 2,900 -344 Descending Indianapolis Center
Sun 09:09:30 PM 40.0200 -83.1033 36° Northeast 136 157 2,300 -492 Descending Indianapolis Center
Sun 09:10:31 PM 40.0356 -83.0719 57° Northeast 99 114 1,900 -365 Descending Indianapolis Center
Sun 09:11:25 PM 40.0519 -83.0467 50° Northeast 98 113 1,600 -417 Descending Indianapolis Center
Sun 09:12:26 PM 40.0678 -83.0592 329° Northwest 68 78 1,100 -323 Descending Indianapolis Center
Sun 09:13:35 PM 40.0828 -83.0744 322° Northwest 77 89 900 -174 Descending Indianapolis Center

Login

Don't have an account? Register now (free) for customized features, flight alerts, and more!